createdAt,value
2019-01-04T00:00:41.614Z,68.60
2019-01-04T00:05:32.506Z,68.70
2019-01-04T00:10:23.426Z,68.80
2019-01-04T00:15:14.370Z,68.80
2019-01-04T00:20:05.281Z,69.20
2019-01-04T00:24:56.225Z,68.00
2019-01-04T00:29:47.117Z,67.00
2019-01-04T00:34:38.303Z,67.10
2019-01-04T00:39:29.934Z,67.80
2019-01-04T00:44:21.580Z,68.00
2019-01-04T00:49:12.539Z,68.00
2019-01-04T00:54:03.426Z,68.30
2019-01-04T00:59:00.193Z,68.60
2019-01-04T01:09:27.453Z,68.70
2019-01-04T01:14:27.489Z,68.90
2019-01-04T01:19:38.940Z,67.70
2019-01-04T01:24:30.674Z,67.70
2019-01-04T01:29:27.732Z,67.20
2019-01-04T01:34:22.537Z,67.40
2019-01-04T01:39:13.472Z,67.80
2019-01-04T01:44:15.582Z,68.20
2019-01-04T01:49:23.472Z,68.50
2019-01-04T01:54:14.393Z,68.70
2019-01-04T01:59:05.294Z,68.90
2019-01-04T02:03:56.177Z,69.00
2019-01-04T02:08:47.812Z,69.30
2019-01-04T02:13:39.449Z,68.80
2019-01-04T02:18:31.074Z,67.60
2019-01-04T02:23:22.709Z,67.50
2019-01-04T02:28:14.357Z,68.00
2019-01-04T02:33:06.036Z,68.10
2019-01-04T02:37:56.940Z,68.10
2019-01-04T02:42:47.831Z,68.40
2019-01-04T02:47:39.478Z,68.90
2019-01-04T02:52:30.369Z,68.80
2019-01-04T02:57:21.255Z,68.90
2019-01-04T03:02:12.182Z,69.00
2019-01-04T03:07:03.083Z,69.20
2019-01-04T03:11:53.981Z,69.50
2019-01-04T03:16:44.926Z,68.80
2019-01-04T03:21:35.818Z,67.50
2019-01-04T03:26:26.765Z,67.70
2019-01-04T03:31:17.694Z,68.00
2019-01-04T03:36:08.604Z,68.40
2019-01-04T03:40:59.498Z,68.70
2019-01-04T03:45:50.394Z,68.90
2019-01-04T03:50:42.037Z,69.30
2019-01-04T03:55:32.925Z,69.20
2019-01-04T04:00:23.909Z,69.30
2019-01-04T04:05:14.813Z,69.70
2019-01-04T04:10:05.706Z,68.40
2019-01-04T04:14:57.356Z,67.80
2019-01-04T04:19:48.248Z,67.80
2019-01-04T04:24:39.959Z,68.60
2019-01-04T04:29:30.862Z,68.50
2019-01-04T04:34:21.768Z,68.80
2019-01-04T04:39:12.654Z,69.00
2019-01-04T04:44:04.292Z,69.30
2019-01-04T04:48:55.187Z,69.30
2019-01-04T04:53:46.078Z,69.50
2019-01-04T04:58:36.971Z,69.70
2019-01-04T05:03:27.874Z,69.00
2019-01-04T05:08:18.824Z,67.90
2019-01-04T05:13:09.715Z,68.00
2019-01-04T05:18:00.596Z,68.40
2019-01-04T05:22:53.018Z,69.10
2019-01-04T05:27:43.904Z,69.10
2019-01-04T05:32:34.801Z,69.40
2019-01-04T05:37:26.433Z,69.60
2019-01-04T05:42:18.065Z,69.70
2019-01-04T05:47:09.978Z,69.80
2019-01-04T05:52:00.890Z,69.70
2019-01-04T05:56:51.781Z,69.90
2019-01-04T06:01:42.733Z,68.60
2019-01-04T06:06:33.641Z,68.00
2019-01-04T06:11:24.562Z,68.20
2019-01-04T06:16:15.469Z,68.60
2019-01-04T06:21:06.392Z,69.00
2019-01-04T06:25:57.421Z,69.30
2019-01-04T06:30:48.313Z,69.40
2019-01-04T06:35:39.205Z,69.50
2019-01-04T06:40:30.893Z,69.80
2019-01-04T06:45:21.781Z,69.80
2019-01-04T06:50:12.695Z,70.20
2019-01-04T07:00:33.698Z,68.10
2019-01-04T07:05:24.590Z,68.70
2019-01-04T07:10:15.564Z,68.90
2019-01-04T07:15:06.430Z,69.30
2019-01-04T07:19:57.393Z,69.60
2019-01-04T07:24:48.301Z,69.80
2019-01-04T07:29:39.198Z,69.90
2019-01-04T07:34:30.138Z,70.00
2019-01-04T07:39:21.764Z,70.20
2019-01-04T07:44:12.657Z,70.20
2019-01-04T07:49:03.582Z,68.80
2019-01-04T07:53:54.465Z,68.40
2019-01-04T07:58:45.461Z,68.70
2019-01-04T08:03:36.453Z,69.10
2019-01-04T08:08:27.425Z,69.50
2019-01-04T08:13:19.101Z,70.00
2019-01-04T08:18:09.990Z,70.00
2019-01-04T08:23:00.985Z,70.30
2019-01-04T08:27:52.621Z,71.00
2019-01-04T08:32:44.253Z,70.40
2019-01-04T08:37:35.883Z,69.10
2019-01-04T08:42:27.580Z,69.70
2019-01-04T08:47:18.471Z,69.10
2019-01-04T08:52:09.352Z,69.50
2019-01-04T08:57:00.245Z,69.80
2019-01-04T09:01:51.214Z,69.70
2019-01-04T09:06:42.853Z,70.80
2019-01-04T09:11:34.469Z,71.00
2019-01-04T09:16:26.112Z,71.80
2019-01-04T09:21:17.805Z,71.50
2019-01-04T09:26:08.697Z,71.40
2019-01-04T09:30:59.660Z,71.20
2019-01-04T09:35:50.549Z,69.80
2019-01-04T09:40:41.445Z,69.70
2019-01-04T09:45:32.336Z,69.90
2019-01-04T09:50:24.018Z,70.90
2019-01-04T09:55:14.968Z,70.80
2019-01-04T10:00:05.872Z,71.10
2019-01-04T10:04:56.794Z,71.30
2019-01-04T10:09:47.773Z,71.50
2019-01-04T10:14:38.702Z,71.70
2019-01-04T10:19:29.645Z,72.10
2019-01-04T10:24:20.542Z,70.70
2019-01-04T10:29:11.441Z,70.10
2019-01-04T10:34:02.336Z,70.50
2019-01-04T10:38:54.210Z,71.90
2019-01-04T10:43:45.436Z,71.30
2019-01-04T10:48:36.389Z,71.60
2019-01-04T10:53:27.277Z,72.00
2019-01-04T10:58:18.162Z,72.30
2019-01-04T11:03:09.794Z,72.20
2019-01-04T11:08:00.798Z,72.20
2019-01-04T11:12:51.689Z,71.20
2019-01-04T11:17:42.569Z,70.90
2019-01-04T11:28:05.350Z,71.40
2019-01-04T11:32:57.054Z,72.30
2019-01-04T11:37:57.046Z,72.00
2019-01-04T11:42:47.921Z,72.40
2019-01-04T11:47:49.602Z,72.50
2019-01-04T11:52:40.584Z,72.80
2019-01-04T11:57:31.510Z,71.70
2019-01-04T12:02:26.335Z,71.00
2019-01-04T12:07:13.355Z,71.20
2019-01-04T12:12:04.250Z,71.60
2019-01-04T12:16:55.141Z,72.20
2019-01-04T12:21:46.825Z,72.70
2019-01-04T12:26:37.715Z,72.70
2019-01-04T12:31:28.631Z,72.80
2019-01-04T12:36:19.568Z,72.90
2019-01-04T12:41:10.518Z,72.20
2019-01-04T12:46:01.399Z,71.10
2019-01-04T12:50:52.291Z,71.20
2019-01-04T12:55:43.280Z,71.60
2019-01-04T13:00:34.177Z,72.20
2019-01-04T13:05:25.090Z,72.50
2019-01-04T13:10:16.032Z,72.60
2019-01-04T13:15:07.044Z,72.90
2019-01-04T13:19:58.042Z,73.00
2019-01-04T13:24:48.924Z,73.20
2019-01-04T13:29:40.557Z,71.10
2019-01-04T13:34:32.194Z,71.50
2019-01-04T13:39:23.889Z,72.00
2019-01-04T13:44:14.783Z,72.00
2019-01-04T13:49:05.709Z,72.40
2019-01-04T13:53:56.588Z,72.60
2019-01-04T13:58:48.217Z,72.90
2019-01-04T14:03:39.910Z,73.00
2019-01-04T14:08:30.826Z,73.00
2019-01-04T14:13:21.723Z,71.70
2019-01-04T14:18:12.634Z,71.20
2019-01-04T14:23:03.526Z,71.70
2019-01-04T14:27:55.204Z,72.40
2019-01-04T14:32:46.088Z,72.40
2019-01-04T14:37:37.724Z,73.10
2019-01-04T14:42:29.374Z,73.20
2019-01-04T14:47:20.279Z,73.20
2019-01-04T14:52:11.909Z,71.90
2019-01-04T14:57:03.581Z,71.30
2019-01-04T15:01:54.494Z,71.30
2019-01-04T15:06:45.376Z,71.50
2019-01-04T15:11:37.002Z,72.40
2019-01-04T15:16:29.413Z,72.90
2019-01-04T15:21:20.296Z,72.90
2019-01-04T15:26:11.191Z,73.00
2019-01-04T15:31:02.973Z,73.40
2019-01-04T15:35:54.015Z,73.30
2019-01-04T15:40:44.904Z,72.60
2019-01-04T15:45:35.865Z,71.80
2019-01-04T15:50:26.761Z,71.40
2019-01-04T15:55:17.689Z,71.90
2019-01-04T16:00:08.578Z,72.30
2019-01-04T16:04:59.486Z,72.70
2019-01-04T16:09:50.373Z,72.70
2019-01-04T16:14:42.732Z,73.10
2019-01-04T16:19:33.818Z,73.00
2019-01-04T16:24:24.696Z,73.20
2019-01-04T16:29:15.660Z,71.80
2019-01-04T16:34:06.565Z,71.20
2019-01-04T16:38:57.554Z,71.40
2019-01-04T16:43:48.443Z,71.80
2019-01-04T16:48:39.320Z,72.10
2019-01-04T16:53:30.210Z,72.70
2019-01-04T16:58:21.197Z,72.80
2019-01-04T17:03:12.109Z,72.90
2019-01-04T17:08:03.005Z,73.40
2019-01-04T17:12:53.957Z,72.40
2019-01-04T17:17:45.681Z,71.50
2019-01-04T17:22:37.396Z,71.50
2019-01-04T17:27:28.294Z,71.50
2019-01-04T17:32:19.232Z,71.90
2019-01-04T17:37:10.145Z,72.10
2019-01-04T17:42:01.078Z,72.40
2019-01-04T17:46:51.964Z,72.80
2019-01-04T17:51:42.904Z,73.00
2019-01-04T17:56:33.834Z,72.80
2019-01-04T18:01:24.851Z,71.50
2019-01-04T18:06:15.741Z,71.20
2019-01-04T18:11:06.681Z,71.50
2019-01-04T18:15:57.565Z,72.10
2019-01-04T18:20:48.480Z,72.40
2019-01-04T18:25:40.119Z,72.70
2019-01-04T18:30:31.082Z,72.70
2019-01-04T18:35:21.981Z,72.80
2019-01-04T18:40:12.920Z,72.90
2019-01-04T18:45:03.857Z,71.50
2019-01-04T18:49:54.869Z,71.10
2019-01-04T18:54:45.757Z,71.40
2019-01-04T18:59:36.648Z,71.80
2019-01-04T19:04:28.282Z,72.40
2019-01-04T19:09:19.970Z,72.50
2019-01-04T19:14:10.901Z,72.50
2019-01-04T19:19:02.524Z,72.90
2019-01-04T19:23:53.435Z,72.90
2019-01-04T19:28:44.374Z,71.50
2019-01-04T19:33:35.254Z,70.80
2019-01-04T19:38:26.133Z,71.10
2019-01-04T19:43:17.837Z,72.20
2019-01-04T19:48:08.741Z,72.10
2019-01-04T19:52:59.677Z,72.40
2019-01-04T19:57:50.618Z,72.60
2019-01-04T20:02:41.510Z,73.00
2019-01-04T20:07:54.650Z,73.60
2019-01-04T20:18:49.725Z,71.50
2019-01-04T20:23:47.036Z,72.10
2019-01-04T20:28:44.160Z,72.30
2019-01-04T20:39:14.774Z,73.20
2019-01-04T20:44:07.550Z,73.50
2019-01-04T20:49:04.681Z,73.80
2019-01-04T20:54:00.217Z,72.40
2019-01-04T20:58:54.393Z,72.30
2019-01-04T21:03:45.286Z,72.30
2019-01-04T21:08:42.433Z,72.60
2019-01-04T21:13:39.397Z,73.10
2019-01-04T21:24:08.922Z,73.80
2019-01-04T21:29:02.899Z,74.10
2019-01-04T21:34:00.629Z,73.50
2019-01-04T21:38:57.870Z,73.50
2019-01-04T21:43:55.176Z,72.80
2019-01-04T21:48:50.120Z,72.80
2019-01-04T21:53:48.010Z,73.50
2019-01-04T21:58:45.761Z,73.90
2019-01-04T22:03:38.666Z,73.80
2019-01-04T22:08:32.396Z,74.00
2019-01-04T22:18:49.589Z,74.50
2019-01-04T22:23:41.485Z,72.20
2019-01-04T22:34:06.381Z,72.50
2019-01-04T22:39:03.170Z,73.60
2019-01-04T22:43:57.193Z,73.60
2019-01-04T22:48:54.281Z,74.00
2019-01-04T22:53:48.213Z,74.20
2019-01-04T22:58:39.109Z,74.50
2019-01-04T23:03:36.390Z,74.00
2019-01-04T23:08:27.362Z,72.80
2019-01-04T23:13:20.141Z,72.70
2019-01-04T23:18:15.137Z,73.10
2019-01-04T23:23:06.037Z,73.70
2019-01-04T23:33:36.870Z,74.30
2019-01-04T23:38:32.612Z,74.80
2019-01-04T23:43:24.305Z,73.30
2019-01-04T23:48:15.218Z,73.30
2019-01-04T23:53:12.437Z,72.90
2019-01-04T23:58:08.077Z,74.10
